createdAt,value
2022-09-09T00:00:48.601Z,380.10
2022-09-09T00:01:48.563Z,398.40
2022-09-09T00:02:48.648Z,388.30
2022-09-09T00:03:48.555Z,383.60
2022-09-09T00:04:48.510Z,384.80
2022-09-09T00:05:48.545Z,384.20
2022-09-09T00:06:48.490Z,387.80
2022-09-09T00:07:48.516Z,388.20
2022-09-09T00:08:48.477Z,391.90
2022-09-09T00:09:48.494Z,402.90
2022-09-09T00:10:48.465Z,397.80
2022-09-09T00:11:48.444Z,393.50
2022-09-09T00:12:48.404Z,397.70
2022-09-09T00:13:48.390Z,391.90
2022-09-09T00:14:48.398Z,384.70
2022-09-09T00:15:48.492Z,383.70
2022-09-09T00:16:48.384Z,379.60
2022-09-09T00:17:48.354Z,379.70
2022-09-09T00:18:48.349Z,377.30
2022-09-09T00:19:48.350Z,387.90
2022-09-09T00:20:48.389Z,387.90
2022-09-09T00:21:48.361Z,396.50
2022-09-09T00:22:48.320Z,390.90
2022-09-09T00:23:48.315Z,395.10
2022-09-09T00:24:48.319Z,394.50
2022-09-09T00:25:52.249Z,388.70
2022-09-09T00:26:48.265Z,393.50
2022-09-09T00:27:48.277Z,374.90
2022-09-09T00:28:48.239Z,376.00
2022-09-09T00:29:48.239Z,379.00
2022-09-09T00:30:48.263Z,380.10
2022-09-09T00:31:48.221Z,380.90
2022-09-09T00:32:48.212Z,388.80
2022-09-09T00:33:48.189Z,384.90
2022-09-09T00:34:48.186Z,386.20
2022-09-09T00:35:48.233Z,384.90
2022-09-09T00:36:48.161Z,388.10
2022-09-09T00:37:48.156Z,380.00
2022-09-09T00:38:48.120Z,376.20
2022-09-09T00:39:48.166Z,381.10
2022-09-09T00:40:48.169Z,381.00
2022-09-09T00:41:48.114Z,382.60
2022-09-09T00:42:48.235Z,381.50
2022-09-09T00:43:48.070Z,381.50
2022-09-09T00:44:48.046Z,385.00
2022-09-09T00:45:48.158Z,386.10
2022-09-09T00:46:48.056Z,383.50
2022-09-09T00:47:48.032Z,393.10
2022-09-09T00:48:48.023Z,415.90
2022-09-09T00:49:48.023Z,418.50
2022-09-09T00:50:48.041Z,424.20
2022-09-09T00:51:48.016Z,423.50
2022-09-09T00:52:47.967Z,426.70
2022-09-09T00:53:47.973Z,430.30
2022-09-09T00:54:47.966Z,413.80
2022-09-09T00:55:48.013Z,408.90
2022-09-09T00:56:47.944Z,415.10
2022-09-09T00:57:47.947Z,411.30
2022-09-09T00:58:47.929Z,409.10
2022-09-09T00:59:47.915Z,410.00
2022-09-09T01:00:47.948Z,409.30
2022-09-09T01:01:47.943Z,419.30
2022-09-09T01:02:47.906Z,418.20
2022-09-09T01:03:47.851Z,401.00
2022-09-09T01:04:47.864Z,406.50
2022-09-09T01:05:47.895Z,408.20
2022-09-09T01:06:47.857Z,406.90
2022-09-09T01:07:47.807Z,401.80
2022-09-09T01:08:47.820Z,408.00
2022-09-09T01:09:47.794Z,399.40
2022-09-09T01:10:47.819Z,398.80
2022-09-09T01:11:47.804Z,407.80
2022-09-09T01:12:47.755Z,409.30
2022-09-09T01:13:47.738Z,405.90
2022-09-09T01:14:47.729Z,412.60
2022-09-09T01:15:47.789Z,401.40
2022-09-09T01:16:47.760Z,397.10
2022-09-09T01:17:47.726Z,401.50
2022-09-09T01:18:47.722Z,403.90
2022-09-09T01:19:47.684Z,411.30
2022-09-09T01:20:47.735Z,411.00
2022-09-09T01:21:47.679Z,402.50
2022-09-09T01:22:47.665Z,397.20
2022-09-09T01:23:47.627Z,402.90
2022-09-09T01:24:47.647Z,397.60
2022-09-09T01:25:47.670Z,405.50
2022-09-09T01:26:47.627Z,399.60
2022-09-09T01:27:47.610Z,402.00
2022-09-09T01:28:47.605Z,400.90
2022-09-09T01:29:47.577Z,401.60
2022-09-09T01:30:47.757Z,399.90
2022-09-09T01:31:47.558Z,396.60
2022-09-09T01:32:47.564Z,398.70
2022-09-09T01:33:47.541Z,400.40
2022-09-09T01:34:47.526Z,427.20
2022-09-09T01:35:47.541Z,469.40
2022-09-09T01:36:47.499Z,492.00
2022-09-09T01:37:47.495Z,453.70
2022-09-09T01:38:47.471Z,450.40
2022-09-09T01:39:47.531Z,436.50
2022-09-09T01:40:47.506Z,436.30
2022-09-09T01:41:47.448Z,427.00
2022-09-09T01:42:47.441Z,414.70
2022-09-09T01:43:47.415Z,409.70
2022-09-09T01:44:47.409Z,405.80
2022-09-09T01:45:47.477Z,397.80
2022-09-09T01:46:47.416Z,395.40
2022-09-09T01:47:47.377Z,397.90
2022-09-09T01:48:47.384Z,391.80
2022-09-09T01:49:47.368Z,383.10
2022-09-09T01:50:47.398Z,382.40
2022-09-09T01:51:47.307Z,382.60
2022-09-09T01:52:47.335Z,383.10
2022-09-09T01:53:47.318Z,385.70
2022-09-09T01:54:47.292Z,389.90
2022-09-09T01:55:47.323Z,389.90
2022-09-09T01:56:47.289Z,382.60
2022-09-09T01:57:47.285Z,387.70
2022-09-09T01:58:47.285Z,393.00
2022-09-09T01:59:47.251Z,388.80
2022-09-09T02:00:47.336Z,389.50
2022-09-09T02:01:47.222Z,385.20
2022-09-09T02:02:47.293Z,377.30
2022-09-09T02:03:47.183Z,368.80
2022-09-09T02:04:47.193Z,363.90
2022-09-09T02:05:47.222Z,364.40
2022-09-09T02:06:47.178Z,359.30
2022-09-09T02:07:47.146Z,361.70
2022-09-09T02:08:47.159Z,372.20
2022-09-09T02:09:47.139Z,365.90
2022-09-09T02:10:47.167Z,360.90
2022-09-09T02:11:47.129Z,356.30
2022-09-09T02:12:47.091Z,359.60
2022-09-09T02:13:47.081Z,350.50
2022-09-09T02:14:47.059Z,349.90
2022-09-09T02:15:47.096Z,348.80
2022-09-09T02:16:47.113Z,354.30
2022-09-09T02:17:47.044Z,348.20
2022-09-09T02:18:47.033Z,336.10
2022-09-09T02:19:47.051Z,340.50
2022-09-09T02:20:47.060Z,344.40
2022-09-09T02:21:47.006Z,343.20
2022-09-09T02:22:47.039Z,340.10
2022-09-09T02:23:46.966Z,341.10
2022-09-09T02:24:46.984Z,340.30
2022-09-09T02:25:47.018Z,333.20
2022-09-09T02:26:46.985Z,329.80
2022-09-09T02:27:46.943Z,328.90
2022-09-09T02:28:46.925Z,329.40
2022-09-09T02:29:46.935Z,323.10
2022-09-09T02:30:46.980Z,330.00
2022-09-09T02:31:46.899Z,321.30
2022-09-09T02:32:46.883Z,322.80
2022-09-09T02:33:46.873Z,322.20
2022-09-09T02:34:46.932Z,322.30
2022-09-09T02:35:46.846Z,325.40
2022-09-09T02:36:46.855Z,332.50
2022-09-09T02:37:46.820Z,329.30
2022-09-09T02:38:46.810Z,326.90
2022-09-09T02:39:46.824Z,320.70
2022-09-09T02:40:46.836Z,322.70
2022-09-09T02:41:46.766Z,317.40
2022-09-09T02:42:46.744Z,317.30
2022-09-09T02:43:46.735Z,314.00
2022-09-09T02:44:46.753Z,322.20
2022-09-09T02:45:46.860Z,319.50
2022-09-09T02:46:46.722Z,318.20
2022-09-09T02:47:46.709Z,314.90
2022-09-09T02:48:46.705Z,312.60
2022-09-09T02:49:46.710Z,316.20
2022-09-09T02:50:46.719Z,318.00
2022-09-09T02:51:46.674Z,322.20
2022-09-09T02:52:46.656Z,337.60
2022-09-09T02:53:46.648Z,351.50
2022-09-09T02:54:46.648Z,389.50
2022-09-09T02:55:46.683Z,393.60
2022-09-09T02:56:46.618Z,391.60
2022-09-09T02:57:46.604Z,369.90
2022-09-09T02:58:46.616Z,355.00
2022-09-09T02:59:46.579Z,336.10
2022-09-09T03:00:46.632Z,336.90
2022-09-09T03:01:46.550Z,331.00
2022-09-09T03:02:46.583Z,330.00
2022-09-09T03:03:46.545Z,331.50
2022-09-09T03:04:46.503Z,327.90
2022-09-09T03:05:46.548Z,326.30
2022-09-09T03:06:46.505Z,322.40
2022-09-09T03:07:46.487Z,326.90
2022-09-09T03:08:49.363Z,323.10
2022-09-09T03:09:46.473Z,321.20
2022-09-09T03:10:46.494Z,325.30
2022-09-09T03:11:46.415Z,322.70
2022-09-09T03:12:46.412Z,324.10
2022-09-09T03:13:46.395Z,315.20
2022-09-09T03:14:46.452Z,317.20
2022-09-09T03:15:46.431Z,305.70
2022-09-09T03:16:46.422Z,304.20
2022-09-09T03:17:46.396Z,309.20
2022-09-09T03:18:46.351Z,310.10
2022-09-09T03:19:46.375Z,314.50
2022-09-09T03:20:46.396Z,312.60
2022-09-09T03:21:46.335Z,312.20
2022-09-09T03:22:46.327Z,312.00
2022-09-09T03:23:46.298Z,317.80
2022-09-09T03:24:46.299Z,334.50
2022-09-09T03:25:46.321Z,343.80
2022-09-09T03:26:46.316Z,360.30
2022-09-09T03:27:46.250Z,356.00
2022-09-09T03:28:46.252Z,346.10
2022-09-09T03:29:46.232Z,337.40
2022-09-09T03:30:46.275Z,338.00
2022-09-09T03:31:46.353Z,322.60
2022-09-09T03:32:49.002Z,326.20
2022-09-09T03:33:46.215Z,328.10
2022-09-09T03:34:46.171Z,323.00
2022-09-09T03:35:46.200Z,317.60
2022-09-09T03:36:46.158Z,309.50
2022-09-09T03:37:46.136Z,315.10
2022-09-09T03:38:46.137Z,307.00
2022-09-09T03:39:46.145Z,315.50
2022-09-09T03:40:46.136Z,310.10
2022-09-09T03:41:46.109Z,308.50
2022-09-09T03:42:46.069Z,303.30
2022-09-09T03:43:46.060Z,308.00
2022-09-09T03:44:46.066Z,311.80
2022-09-09T03:45:46.096Z,307.90
2022-09-09T03:46:46.045Z,304.50
2022-09-09T03:47:46.038Z,299.00
2022-09-09T03:48:46.008Z,292.20
2022-09-09T03:49:46.018Z,294.00
2022-09-09T03:50:46.060Z,294.50
2022-09-09T03:51:45.973Z,298.20
2022-09-09T03:52:45.964Z,304.40
2022-09-09T03:53:45.949Z,302.60
2022-09-09T03:54:45.966Z,297.20
2022-09-09T03:55:45.983Z,301.50
2022-09-09T03:56:45.953Z,300.40
2022-09-09T03:57:45.925Z,299.60
2022-09-09T03:58:45.890Z,304.50
2022-09-09T03:59:45.912Z,306.70
2022-09-09T04:00:46.102Z,301.50
2022-09-09T04:01:45.923Z,303.20
2022-09-09T04:02:45.859Z,306.20
2022-09-09T04:03:45.836Z,294.90
2022-09-09T04:04:45.835Z,300.30
2022-09-09T04:05:45.855Z,296.60
2022-09-09T04:06:45.822Z,299.90
2022-09-09T04:07:45.802Z,314.20
2022-09-09T04:08:45.793Z,325.50
2022-09-09T04:09:45.786Z,324.00
2022-09-09T04:10:45.805Z,324.50
2022-09-09T04:11:45.745Z,320.60
2022-09-09T04:12:48.988Z,326.10
2022-09-09T04:13:45.726Z,321.20
2022-09-09T04:14:45.734Z,323.80
2022-09-09T04:15:45.746Z,329.90
2022-09-09T04:16:45.941Z,321.90
2022-09-09T04:17:45.696Z,320.10
2022-09-09T04:18:45.711Z,328.90
2022-09-09T04:19:45.671Z,332.20
2022-09-09T04:20:45.688Z,348.10
2022-09-09T04:21:45.640Z,356.20
2022-09-09T04:22:45.649Z,371.00
2022-09-09T04:23:45.633Z,387.80
2022-09-09T04:24:48.775Z,394.90
2022-09-09T04:25:45.656Z,394.90
2022-09-09T04:26:45.578Z,392.50
2022-09-09T04:27:45.586Z,380.90
2022-09-09T04:28:45.555Z,386.60
2022-09-09T04:29:45.558Z,374.60
2022-09-09T04:30:45.586Z,381.80
2022-09-09T04:31:45.563Z,412.40
2022-09-09T04:32:45.520Z,439.90
2022-09-09T04:33:45.504Z,447.30
2022-09-09T04:34:45.504Z,442.20
2022-09-09T04:35:45.529Z,447.00
2022-09-09T04:36:45.473Z,459.60
2022-09-09T04:37:45.468Z,449.20
2022-09-09T04:38:45.477Z,431.60
2022-09-09T04:39:45.474Z,409.40
2022-09-09T04:40:45.447Z,384.70
2022-09-09T04:41:45.385Z,369.40
2022-09-09T04:42:45.389Z,361.50
2022-09-09T04:43:45.407Z,350.60
2022-09-09T04:44:45.385Z,341.90
2022-09-09T04:45:45.425Z,356.90
2022-09-09T04:46:45.355Z,359.50
2022-09-09T04:47:45.373Z,365.00
2022-09-09T04:48:45.349Z,374.20
2022-09-09T04:49:45.318Z,369.30
2022-09-09T04:50:45.335Z,376.40
2022-09-09T04:51:45.287Z,375.20
2022-09-09T04:52:45.295Z,364.00
2022-09-09T04:53:45.290Z,367.50
2022-09-09T04:54:45.289Z,366.40
2022-09-09T04:55:45.300Z,365.30
2022-09-09T04:56:45.240Z,373.40
2022-09-09T04:57:45.230Z,371.90
2022-09-09T04:58:45.210Z,379.30
2022-09-09T04:59:45.233Z,378.70
2022-09-09T05:00:45.306Z,386.10
2022-09-09T05:01:45.259Z,379.50
2022-09-09T05:02:45.198Z,387.70
2022-09-09T05:03:45.157Z,396.40
2022-09-09T05:04:45.183Z,397.70
2022-09-09T05:05:45.167Z,424.20
2022-09-09T05:06:45.146Z,436.20
2022-09-09T05:07:45.120Z,440.70
2022-09-09T05:08:45.120Z,453.00
2022-09-09T05:09:45.129Z,464.80
2022-09-09T05:10:45.059Z,473.60
2022-09-09T05:11:45.047Z,486.10
2022-09-09T05:12:45.064Z,494.20
2022-09-09T05:13:45.071Z,520.20
2022-09-09T05:14:45.035Z,542.70
2022-09-09T05:15:45.069Z,558.40
2022-09-09T05:16:45.089Z,552.40
2022-09-09T05:17:44.998Z,548.30
2022-09-09T05:18:45.013Z,552.50
2022-09-09T05:19:44.984Z,557.30
2022-09-09T05:20:44.998Z,554.50
2022-09-09T05:21:44.951Z,544.00
2022-09-09T05:22:44.964Z,550.00
2022-09-09T05:23:44.959Z,548.00
2022-09-09T05:24:44.938Z,550.90
2022-09-09T05:25:44.977Z,554.50
2022-09-09T05:26:44.896Z,558.50
2022-09-09T05:27:44.914Z,571.00
2022-09-09T05:28:44.872Z,576.30
2022-09-09T05:29:44.883Z,569.30
2022-09-09T05:30:44.903Z,570.90
2022-09-09T05:31:44.883Z,560.90
2022-09-09T05:32:44.839Z,567.30
2022-09-09T05:33:44.845Z,581.70
2022-09-09T05:34:44.833Z,606.90
2022-09-09T05:35:44.847Z,621.90
2022-09-09T05:36:44.818Z,618.00
2022-09-09T05:37:44.784Z,622.00
2022-09-09T05:38:44.746Z,627.50
2022-09-09T05:39:44.779Z,623.20
2022-09-09T05:40:44.772Z,608.70
2022-09-09T05:41:44.735Z,614.80
2022-09-09T05:42:44.723Z,617.80
2022-09-09T05:43:44.700Z,611.00
2022-09-09T05:44:44.687Z,621.00
2022-09-09T05:45:44.729Z,623.40
2022-09-09T05:46:44.743Z,619.10
2022-09-09T05:47:44.664Z,617.70
2022-09-09T05:48:44.651Z,620.10
2022-09-09T05:49:44.630Z,615.50
2022-09-09T05:50:44.654Z,606.50
2022-09-09T05:51:44.633Z,598.50
2022-09-09T05:52:44.611Z,598.60
2022-09-09T05:53:44.589Z,587.40
2022-09-09T05:54:44.584Z,579.90
2022-09-09T05:55:44.627Z,579.40
2022-09-09T05:56:46.174Z,565.60
2022-09-09T05:57:44.579Z,569.50
2022-09-09T05:58:44.536Z,553.80
2022-09-09T05:59:44.537Z,542.60
2022-09-09T06:00:44.583Z,549.50
2022-09-09T06:01:44.587Z,545.70
2022-09-09T06:02:44.610Z,544.90
2022-09-09T06:03:44.499Z,553.80
2022-09-09T06:04:44.469Z,551.80
2022-09-09T06:05:44.514Z,558.50
2022-09-09T06:06:44.465Z,559.20
2022-09-09T06:07:44.443Z,547.40
2022-09-09T06:08:44.411Z,535.00
2022-09-09T06:09:44.415Z,542.80
2022-09-09T06:10:44.439Z,102.10
2022-09-09T06:11:44.386Z,109.10
2022-09-09T06:12:44.364Z,110.60
2022-09-09T06:13:44.377Z,114.60
2022-09-09T06:14:46.415Z,136.50
2022-09-09T06:15:44.402Z,346.20
2022-09-09T06:16:44.395Z,580.50
2022-09-09T06:17:44.339Z,562.90
2022-09-09T06:18:44.303Z,524.40
2022-09-09T06:19:44.305Z,261.20
2022-09-09T06:20:44.324Z,581.60
2022-09-09T06:21:44.264Z,388.70
2022-09-09T06:22:44.276Z,567.10
2022-09-09T06:23:44.252Z,185.70
2022-09-09T06:24:44.254Z,145.60
2022-09-09T06:25:44.254Z,500.50
2022-09-09T06:26:44.244Z,194.80
2022-09-09T06:27:44.211Z,511.90
2022-09-09T06:28:44.203Z,244.10
2022-09-09T06:29:44.199Z,449.10
2022-09-09T06:30:44.219Z,620.00
2022-09-09T06:31:44.256Z,133.00
2022-09-09T06:32:44.158Z,155.80
2022-09-09T06:33:44.163Z,162.50
2022-09-09T06:34:44.124Z,93.30
2022-09-09T06:35:44.143Z,105.90
2022-09-09T06:36:44.073Z,93.40
2022-09-09T06:37:44.092Z,73.50
2022-09-09T06:38:44.096Z,87.70
2022-09-09T06:39:44.121Z,113.10
2022-09-09T06:40:44.109Z,111.40
2022-09-09T06:41:44.132Z,82.90
2022-09-09T06:42:44.049Z,106.10
2022-09-09T06:43:44.035Z,104.80
2022-09-09T06:44:44.006Z,101.00
2022-09-09T06:45:44.071Z,101.20
2022-09-09T06:46:44.037Z,96.90
2022-09-09T06:47:44.015Z,87.30
2022-09-09T06:48:43.982Z,83.00
2022-09-09T06:49:47.750Z,93.10
2022-09-09T06:50:43.964Z,104.20
2022-09-09T06:51:44.227Z,106.30
2022-09-09T06:52:43.933Z,94.60
2022-09-09T06:53:43.912Z,76.70
2022-09-09T06:54:43.932Z,85.20
2022-09-09T06:55:43.902Z,87.70
2022-09-09T06:56:43.919Z,78.10
2022-09-09T06:57:43.872Z,66.80
2022-09-09T06:58:43.844Z,75.40
2022-09-09T06:59:43.858Z,102.30
2022-09-09T07:00:43.875Z,105.20
2022-09-09T07:01:43.904Z,75.90
2022-09-09T07:02:43.834Z,78.30
2022-09-09T07:03:43.803Z,98.10
2022-09-09T07:04:43.791Z,122.90
2022-09-09T07:05:43.772Z,122.00
2022-09-09T07:06:43.798Z,78.70
2022-09-09T07:07:43.754Z,53.40
2022-09-09T07:08:55.319Z,30.90
2022-09-09T07:09:44.743Z,23.00
2022-09-09T07:10:43.729Z,17.00
2022-09-09T07:11:43.770Z,22.20
2022-09-09T07:12:43.715Z,24.40
2022-09-09T07:13:43.699Z,27.00
2022-09-09T07:14:43.683Z,26.60
2022-09-09T07:15:43.726Z,20.10
2022-09-09T07:16:43.699Z,23.70
2022-09-09T07:17:43.651Z,38.30
2022-09-09T07:18:43.644Z,30.40
2022-09-09T07:19:43.649Z,23.10
2022-09-09T07:20:43.628Z,23.60
2022-09-09T07:21:43.640Z,19.90
2022-09-09T07:22:43.610Z,16.90
2022-09-09T07:23:43.585Z,15.90
2022-09-09T07:24:43.609Z,21.10
2022-09-09T07:25:43.560Z,25.30
2022-09-09T07:26:43.595Z,27.50
2022-09-09T07:27:43.542Z,34.70
2022-09-09T07:28:43.547Z,35.00
2022-09-09T07:29:43.530Z,33.60
2022-09-09T07:30:43.525Z,33.10
2022-09-09T07:31:43.597Z,20.10
2022-09-09T07:32:43.517Z,12.80
2022-09-09T07:33:43.485Z,12.70
2022-09-09T07:34:43.455Z,12.40
2022-09-09T07:35:43.470Z,12.40
2022-09-09T07:36:43.460Z,13.90
2022-09-09T07:37:45.746Z,17.50
2022-09-09T07:38:44.404Z,18.20
2022-09-09T07:39:43.441Z,22.20
2022-09-09T07:40:43.403Z,24.10
2022-09-09T07:41:43.469Z,10.70
2022-09-09T07:42:43.369Z,8.60
2022-09-09T07:43:43.368Z,9.10
2022-09-09T07:44:43.362Z,10.50
2022-09-09T07:45:43.364Z,10.70
2022-09-09T07:46:43.439Z,12.50
2022-09-09T07:47:43.344Z,12.70
2022-09-09T07:48:43.293Z,12.20
2022-09-09T07:49:43.306Z,11.80
2022-09-09T07:50:43.269Z,10.40
2022-09-09T07:51:43.315Z,10.90
2022-09-09T07:52:43.261Z,11.40
2022-09-09T07:53:43.264Z,9.80
2022-09-09T07:54:43.249Z,9.80
2022-09-09T07:55:43.241Z,9.80
2022-09-09T07:56:43.251Z,10.30
2022-09-09T07:57:43.207Z,10.30
2022-09-09T07:58:43.201Z,10.20
2022-09-09T07:59:43.195Z,10.90
2022-09-09T08:00:43.185Z,10.60
2022-09-09T08:01:43.245Z,10.50
2022-09-09T08:02:43.209Z,9.80
2022-09-09T08:03:43.144Z,10.90
2022-09-09T08:04:43.118Z,10.40
2022-09-09T08:05:43.114Z,9.30
2022-09-09T08:06:43.159Z,9.80
2022-09-09T08:07:43.100Z,8.80
2022-09-09T08:08:43.078Z,7.80
2022-09-09T08:09:43.120Z,7.60
2022-09-09T08:10:43.061Z,7.40
2022-09-09T08:11:43.092Z,7.60
2022-09-09T08:13:01.346Z,7.80
2022-09-09T08:13:44.058Z,7.70
2022-09-09T08:14:43.022Z,7.90
2022-09-09T08:15:43.084Z,7.80
2022-09-09T08:16:43.025Z,7.20
2022-09-09T08:17:42.986Z,6.90
2022-09-09T08:18:42.967Z,7.20
2022-09-09T08:19:42.944Z,7.10
2022-09-09T08:20:42.981Z,6.70
2022-09-09T08:21:43.017Z,6.60
2022-09-09T08:22:42.939Z,7.20
2022-09-09T08:23:42.927Z,6.60
2022-09-09T08:24:42.939Z,6.60
2022-09-09T08:25:42.920Z,7.60
2022-09-09T08:26:42.945Z,8.00
2022-09-09T08:27:42.913Z,9.10
2022-09-09T08:28:42.852Z,10.30
2022-09-09T08:29:42.853Z,10.00
2022-09-09T08:30:42.861Z,9.60
2022-09-09T08:31:42.890Z,8.50
2022-09-09T08:32:45.554Z,8.80
2022-09-09T08:33:42.827Z,9.00
2022-09-09T08:34:46.726Z,8.90
2022-09-09T08:35:42.797Z,30.20
2022-09-09T08:36:42.832Z,59.70
2022-09-09T08:37:42.771Z,45.60
2022-09-09T08:38:42.755Z,110.30
2022-09-09T08:39:42.771Z,90.00
2022-09-09T08:40:42.758Z,728.60
2022-09-09T08:41:42.732Z,614.40
2022-09-09T08:42:42.744Z,357.80
2022-09-09T08:43:42.709Z,79.20
2022-09-09T08:44:46.860Z,674.00
2022-09-09T08:45:43.688Z,92.60
2022-09-09T08:46:42.776Z,18.20
2022-09-09T08:47:42.681Z,85.10
2022-09-09T08:48:42.674Z,653.80
2022-09-09T08:49:42.640Z,243.80
2022-09-09T08:50:42.659Z,777.60
2022-09-09T08:51:42.673Z,867.50
2022-09-09T08:52:42.591Z,617.40
2022-09-09T08:53:42.597Z,699.10
2022-09-09T08:54:52.220Z,597.80
2022-09-09T08:55:43.612Z,520.50
2022-09-09T08:56:42.607Z,756.10
2022-09-09T08:57:42.562Z,608.60
2022-09-09T08:58:42.531Z,552.30
2022-09-09T08:59:42.531Z,622.90
2022-09-09T09:00:42.509Z,819.50
2022-09-09T09:01:42.584Z,999.90
2022-09-09T09:02:42.480Z,999.90
2022-09-09T09:03:42.462Z,999.90
2022-09-09T09:04:42.572Z,999.90
2022-09-09T09:05:42.485Z,921.60
2022-09-09T09:06:42.478Z,839.50
2022-09-09T09:07:42.477Z,999.90
2022-09-09T09:08:42.417Z,961.60
2022-09-09T09:09:42.450Z,999.90
2022-09-09T09:10:43.038Z,999.90
2022-09-09T09:11:42.397Z,999.90
2022-09-09T09:12:42.435Z,999.90
2022-09-09T09:13:44.002Z,999.90
2022-09-09T09:14:44.574Z,999.90
2022-09-09T09:15:42.390Z,999.90
2022-09-09T09:16:42.344Z,999.90
2022-09-09T09:17:42.369Z,999.90
2022-09-09T09:18:42.348Z,999.90
2022-09-09T09:19:42.329Z,999.90
2022-09-09T09:20:42.304Z,999.90
2022-09-09T09:21:42.291Z,999.90
2022-09-09T09:22:42.308Z,999.90
2022-09-09T09:23:42.300Z,999.90
2022-09-09T09:24:42.251Z,999.90
2022-09-09T09:25:42.250Z,999.90
2022-09-09T09:26:42.271Z,999.90
2022-09-09T09:27:42.260Z,999.90
2022-09-09T09:28:42.209Z,940.40
2022-09-09T09:30:04.148Z,897.70
2022-09-09T09:30:43.236Z,999.90
2022-09-09T09:31:42.211Z,938.60
2022-09-09T09:32:42.196Z,999.90
2022-09-09T09:33:42.155Z,886.10
2022-09-09T09:34:42.165Z,922.00
2022-09-09T09:35:44.428Z,796.40
2022-09-09T09:36:42.173Z,826.50
2022-09-09T09:40:43.070Z,786.40
2022-09-09T09:41:42.109Z,636.70
2022-09-09T09:42:42.065Z,712.00
2022-09-09T09:43:42.062Z,833.00
2022-09-09T09:44:42.052Z,851.40
2022-09-09T09:45:46.742Z,858.40
2022-09-09T09:46:43.077Z,878.20
2022-09-09T09:47:42.028Z,801.20
2022-09-09T09:48:42.019Z,775.40
2022-09-09T09:49:42.009Z,800.10
2022-09-09T09:50:41.982Z,862.00
2022-09-09T09:51:42.007Z,889.40
2022-09-09T09:52:41.965Z,801.30
2022-09-09T09:53:41.967Z,861.40
2022-09-09T09:54:41.958Z,921.50
2022-09-09T09:55:41.935Z,933.50
2022-09-09T09:56:41.972Z,870.30
2022-09-09T09:57:41.932Z,830.10
2022-09-09T09:58:41.934Z,821.90
2022-09-09T09:59:41.984Z,846.90
2022-09-09T10:00:41.900Z,863.90
2022-09-09T10:01:41.958Z,782.50
2022-09-09T10:02:41.837Z,553.60
2022-09-09T10:03:41.823Z,596.50
2022-09-09T10:04:41.900Z,512.80
2022-09-09T10:05:41.819Z,569.70
2022-09-09T10:06:41.820Z,251.20
2022-09-09T10:07:41.860Z,79.50
2022-09-09T10:08:41.804Z,189.80
2022-09-09T10:09:41.769Z,260.30
2022-09-09T10:10:45.030Z,461.20
2022-09-09T10:11:42.831Z,639.10
2022-09-09T10:12:41.774Z,592.80
2022-09-09T10:13:41.741Z,650.80
2022-09-09T10:14:41.749Z,645.90
2022-09-09T10:15:41.811Z,602.00
2022-09-09T10:16:41.715Z,577.70
2022-09-09T10:17:41.764Z,251.00
2022-09-09T10:18:41.703Z,625.70
2022-09-09T10:19:41.695Z,673.50
2022-09-09T10:20:41.665Z,681.60
2022-09-09T10:21:41.665Z,632.80
2022-09-09T10:22:41.694Z,580.40
2022-09-09T10:23:41.633Z,747.50
2022-09-09T10:24:41.681Z,768.70
2022-09-09T10:25:41.621Z,872.10
2022-09-09T10:26:41.616Z,945.10
2022-09-09T10:27:41.635Z,885.60
2022-09-09T10:28:41.614Z,898.30
2022-09-09T10:29:41.613Z,914.90
2022-09-09T10:30:41.591Z,879.70
2022-09-09T10:31:41.556Z,955.80
2022-09-09T10:32:41.586Z,969.10
2022-09-09T10:33:41.546Z,962.00
2022-09-09T10:34:41.551Z,815.70
2022-09-09T10:35:41.524Z,703.50
2022-09-09T10:36:41.515Z,721.60
2022-09-09T10:37:41.534Z,594.20
2022-09-09T10:38:41.478Z,389.00
2022-09-09T10:39:43.146Z,230.80
2022-09-09T10:40:41.473Z,41.90
2022-09-09T10:41:41.445Z,25.60
2022-09-09T10:42:41.495Z,15.30
2022-09-09T10:43:41.441Z,11.70
2022-09-09T10:44:41.414Z,9.30
2022-09-09T10:45:41.412Z,8.90
2022-09-09T10:46:41.462Z,8.50
2022-09-09T10:47:41.423Z,11.00
2022-09-09T10:48:41.377Z,12.30
2022-09-09T10:49:41.368Z,14.00
2022-09-09T10:51:42.502Z,11.20
2022-09-09T10:52:41.600Z,11.80
2022-09-09T10:53:41.321Z,9.20
2022-09-09T10:54:41.319Z,9.20
2022-09-09T10:55:41.309Z,8.80
2022-09-09T10:56:41.305Z,7.80
2022-09-09T10:57:41.302Z,8.50
2022-09-09T10:58:41.250Z,10.00
2022-09-09T10:59:41.251Z,10.30
2022-09-09T11:00:41.236Z,10.00
2022-09-09T11:01:41.284Z,9.80
2022-09-09T11:02:41.292Z,9.40
2022-09-09T11:03:41.245Z,9.30
2022-09-09T11:04:41.198Z,9.40
2022-09-09T11:05:41.188Z,10.10
2022-09-09T11:06:41.220Z,10.10
2022-09-09T11:07:41.226Z,11.00
2022-09-09T11:08:41.172Z,11.50
2022-09-09T11:09:41.153Z,10.90
2022-09-09T11:10:41.144Z,10.30
2022-09-09T11:11:41.119Z,10.60
2022-09-09T11:12:41.159Z,10.50
2022-09-09T11:13:41.110Z,10.10
2022-09-09T11:14:41.098Z,11.30
2022-09-09T11:15:41.085Z,11.90
2022-09-09T11:16:41.116Z,11.90
2022-09-09T11:17:41.101Z,11.10
2022-09-09T11:18:41.052Z,10.80
2022-09-09T11:19:41.039Z,11.00
2022-09-09T11:20:41.034Z,10.50
2022-09-09T11:21:41.009Z,10.90
2022-09-09T11:22:41.053Z,11.40
2022-09-09T11:23:42.093Z,11.00
2022-09-09T11:24:40.978Z,10.60
2022-09-09T11:25:40.982Z,10.60
2022-09-09T11:26:40.982Z,10.70
2022-09-09T11:27:41.034Z,10.50
2022-09-09T11:28:40.944Z,10.70
2022-09-09T11:29:40.906Z,10.60
2022-09-09T11:30:57.422Z,10.30
2022-09-09T11:31:41.907Z,11.30
2022-09-09T11:32:40.921Z,12.80
2022-09-09T11:33:40.916Z,12.40
2022-09-09T11:34:40.885Z,11.50
2022-09-09T11:35:40.860Z,12.80
2022-09-09T11:36:40.833Z,13.10
2022-09-09T11:37:40.852Z,10.40
2022-09-09T11:38:40.871Z,11.20
2022-09-09T11:39:40.898Z,11.70
2022-09-09T11:40:40.820Z,12.90
2022-09-09T11:41:40.784Z,13.00
2022-09-09T11:42:40.795Z,10.90
2022-09-09T11:43:40.794Z,12.00
2022-09-09T11:44:40.782Z,11.00
2022-09-09T11:45:40.798Z,10.60
2022-09-09T11:46:40.833Z,12.70
2022-09-09T11:47:40.749Z,13.20
2022-09-09T11:48:40.797Z,11.90
2022-09-09T11:49:40.720Z,12.10
2022-09-09T11:50:40.707Z,11.10
2022-09-09T11:51:40.717Z,11.60
2022-09-09T11:52:40.675Z,10.90
2022-09-09T11:53:40.702Z,11.20
2022-09-09T11:54:40.669Z,11.40
2022-09-09T11:55:40.653Z,10.30
2022-09-09T11:56:40.624Z,9.90
2022-09-09T11:57:40.635Z,9.60
2022-09-09T11:58:40.652Z,9.80
2022-09-09T11:59:40.602Z,9.80
2022-09-09T12:00:40.579Z,10.10
2022-09-09T12:01:40.575Z,9.90
2022-09-09T12:02:40.602Z,9.50
2022-09-09T12:03:40.601Z,9.90
2022-09-09T12:04:40.634Z,10.80
2022-09-09T12:05:40.541Z,10.10
2022-09-09T12:06:40.545Z,10.30
2022-09-09T12:07:40.527Z,10.90
2022-09-09T12:08:40.569Z,12.10
2022-09-09T12:09:40.503Z,14.90
2022-09-09T12:10:40.493Z,14.10
2022-09-09T12:11:40.489Z,13.40
2022-09-09T12:12:44.044Z,11.80
2022-09-09T12:13:40.504Z,10.80
2022-09-09T12:14:40.475Z,10.00
2022-09-09T12:15:40.454Z,9.20
2022-09-09T12:16:40.500Z,8.60
2022-09-09T12:17:40.474Z,8.40
2022-09-09T12:18:40.422Z,8.90
2022-09-09T12:19:40.420Z,9.00
2022-09-09T12:20:40.436Z,9.10
2022-09-09T12:21:40.394Z,9.60
2022-09-09T12:22:40.373Z,9.40
2022-09-09T12:23:40.566Z,9.80
2022-09-09T12:24:40.360Z,10.10
2022-09-09T12:25:40.348Z,10.90
2022-09-09T12:26:40.356Z,11.20
2022-09-09T12:27:40.295Z,11.70
2022-09-09T12:28:40.335Z,11.60
2022-09-09T12:29:40.306Z,11.40
2022-09-09T12:30:40.304Z,11.10
2022-09-09T12:31:43.902Z,11.20
2022-09-09T12:32:41.258Z,11.40
2022-09-09T12:33:41.065Z,10.80
2022-09-09T12:34:40.256Z,11.00
2022-09-09T12:35:40.231Z,10.40
2022-09-09T12:36:40.224Z,10.30
2022-09-09T12:37:46.759Z,10.80
2022-09-09T12:38:40.269Z,10.60
2022-09-09T12:39:40.242Z,9.90
2022-09-09T12:40:40.172Z,9.70
2022-09-09T12:41:40.188Z,9.30
2022-09-09T12:42:41.302Z,9.80